Time;durP1;ratioP1;P1;durP2;ratioP2;P2;SDS_P1;SDS_P2;PMS_P1;PMS_P2;Temp;Humidity;BMP_temperature;BMP_pressure;BME280_temperature;BME280_humidity;BME280_pressure;Samples;Min_cycle;Max_cycle;Signal;HPM_P1;HPM_P2
2022/06/25 00:01:15;;;;;;;4.23;4.00;;;15.90;99.90;;;;;;5074819;28;20509;-79
2022/06/25 00:03:43;;;;;;;4.50;4.20;;;15.90;99.90;;;;;;5075694;28;20460;-79
2022/06/25 00:06:10;;;;;;;4.10;3.80;;;15.80;99.90;;;;;;5075473;28;20447;-79
2022/06/25 00:08:38;;;;;;;4.80;4.50;;;15.80;99.90;;;;;;5074960;28;20471;-79
2022/06/25 00:11:06;;;;;;;4.07;3.80;;;15.70;99.90;;;;;;5074770;28;20444;-79
2022/06/25 00:13:33;;;;;;;4.07;3.77;;;15.70;99.90;;;;;;5074979;28;20452;-79
2022/06/25 00:16:00;;;;;;;4.03;3.73;;;15.70;99.90;;;;;;5075100;28;20455;-79
2022/06/25 00:18:28;;;;;;;4.53;4.13;;;15.60;99.90;;;;;;5075288;28;20476;-79
2022/06/25 00:20:55;;;;;;;5.37;4.60;;;15.70;99.90;;;;;;5074483;28;20967;-79
2022/06/25 00:23:22;;;;;;;5.73;3.73;;;15.60;99.90;;;;;;5075122;28;20472;-79
2022/06/25 00:25:49;;;;;;;4.50;4.20;;;15.60;99.90;;;;;;5074884;28;20827;-79
2022/06/25 00:28:15;;;;;;;5.00;4.20;;;15.60;99.90;;;;;;5074605;28;20478;-79
2022/06/25 00:30:42;;;;;;;3.40;3.20;;;15.60;99.90;;;;;;5074748;28;20448;-79
2022/06/25 00:33:09;;;;;;;4.20;3.70;;;15.50;99.90;;;;;;5075455;28;20455;-79
2022/06/25 00:35:37;;;;;;;3.73;3.43;;;15.60;99.90;;;;;;5078846;28;20458;-79
2022/06/25 00:38:03;;;;;;;3.73;3.23;;;15.50;99.90;;;;;;5078191;28;20925;-79
2022/06/25 00:40:30;;;;;;;3.80;3.07;;;15.50;99.90;;;;;;5078687;28;20443;-79
2022/06/25 00:42:57;;;;;;;3.97;3.60;;;15.50;99.90;;;;;;5078339;28;20478;-79
2022/06/25 00:45:23;;;;;;;3.90;3.60;;;15.50;99.90;;;;;;5079337;28;20447;-79
2022/06/25 00:47:50;;;;;;;4.20;3.80;;;15.40;99.90;;;;;;5078409;28;20451;-79
2022/06/25 00:50:17;;;;;;;3.60;3.33;;;15.40;99.90;;;;;;5077831;28;20997;-79
2022/06/25 00:52:52;;;;;;;4.00;3.70;;;15.20;99.90;;;;;;5078116;28;20458;-79
2022/06/25 00:55:23;;;;;;;3.23;3.03;;;15.20;99.90;;;;;;5078581;28;20450;-79
2022/06/25 00:57:51;;;;;;;4.70;4.40;;;15.20;99.90;;;;;;5078192;28;20940;-79
2022/06/25 01:00:18;;;;;;;4.40;4.10;;;15.20;99.90;;;;;;5077811;28;20482;-79
2022/06/25 01:02:45;;;;;;;4.10;3.47;;;15.20;99.90;;;;;;5078326;28;20519;-79
2022/06/25 01:05:15;;;;;;;3.80;3.53;;;15.20;99.90;;;;;;5077758;28;20449;-79
2022/06/25 01:07:47;;;;;;;3.93;3.73;;;15.20;99.90;;;;;;5078232;28;20451;-79
2022/06/25 01:10:14;;;;;;;4.00;3.70;;;15.20;99.90;;;;;;5077707;28;20498;-79
2022/06/25 01:12:42;;;;;;;3.70;3.50;;;15.10;99.90;;;;;;5077970;28;20448;-79
2022/06/25 01:15:14;;;;;;;5.63;3.77;;;15.20;99.90;;;;;;5077950;28;20481;-79
2022/06/25 01:17:43;;;;;;;4.00;3.60;;;15.20;99.90;;;;;;5078312;28;20451;-79
2022/06/25 01:20:10;;;;;;;4.17;3.60;;;15.20;99.90;;;;;;5077268;28;20475;-79
2022/06/25 01:22:39;;;;;;;4.13;3.83;;;15.10;99.90;;;;;;5077268;28;20484;-79
2022/06/25 01:25:08;;;;;;;5.20;4.90;;;15.00;99.90;;;;;;5077055;28;20452;-79
2022/06/25 01:27:35;;;;;;;5.23;3.87;;;14.90;99.90;;;;;;5077658;28;20520;-79
2022/06/25 01:30:02;;;;;;;4.33;4.03;;;15.00;99.90;;;;;;5077759;28;20471;-79
2022/06/25 01:32:29;;;;;;;6.43;4.30;;;15.10;99.90;;;;;;5077332;28;20457;-79
2022/06/25 01:34:56;;;;;;;3.67;3.37;;;15.00;99.90;;;;;;5077489;28;20489;-79
2022/06/25 01:37:23;;;;;;;4.53;4.17;;;15.00;99.90;;;;;;5077643;28;20445;-79
2022/06/25 01:39:54;;;;;;;3.70;3.40;;;15.00;99.90;;;;;;5076931;28;20471;-79
2022/06/25 01:51:09;;;;;;;4.33;4.03;;;15.00;99.90;;;;;;5026931;28;20512;-79
2022/06/25 01:53:36;;;;;;;3.90;3.60;;;15.00;99.90;;;;;;5057365;28;20495;-79
2022/06/25 01:56:04;;;;;;;4.47;3.57;;;14.90;99.90;;;;;;5076562;28;20474;-79
2022/06/25 01:58:31;;;;;;;3.83;3.63;;;14.90;99.90;;;;;;5076440;28;20473;-79
2022/06/25 02:00:58;;;;;;;3.07;2.87;;;15.00;99.90;;;;;;5075993;28;20501;-79
2022/06/25 02:03:25;;;;;;;4.23;3.80;;;15.00;99.90;;;;;;5075479;28;20517;-79
2022/06/25 02:05:58;;;;;;;3.80;3.50;;;14.90;99.90;;;;;;5076203;28;20452;-79
2022/06/25 02:08:26;;;;;;;3.77;3.47;;;14.90;99.90;;;;;;5076109;28;20494;-79
2022/06/25 02:10:54;;;;;;;5.00;4.60;;;14.90;99.90;;;;;;5074903;28;20509;-79
2022/06/25 02:13:22;;;;;;;4.90;4.50;;;14.80;99.90;;;;;;5075806;28;20445;-79
2022/06/25 02:15:49;;;;;;;4.50;4.20;;;14.70;99.90;;;;;;5075564;28;20458;-79
2022/06/25 02:18:16;;;;;;;3.77;3.57;;;14.70;99.90;;;;;;5076073;28;20467;-79
2022/06/25 02:20:43;;;;;;;4.27;3.80;;;14.70;99.90;;;;;;5075435;28;20456;-79
2022/06/25 02:23:11;;;;;;;4.20;3.57;;;14.70;99.90;;;;;;5075949;28;20490;-79
2022/06/25 02:25:38;;;;;;;3.80;3.53;;;14.70;99.90;;;;;;5075077;28;20447;-79
2022/06/25 02:28:05;;;;;;;4.57;4.27;;;14.80;99.90;;;;;;5075550;28;20447;-79
2022/06/25 02:30:33;;;;;;;4.77;4.37;;;14.70;99.90;;;;;;5074976;28;20451;-79
2022/06/25 02:33:00;;;;;;;4.10;3.73;;;14.70;99.90;;;;;;5075666;28;20448;-79
2022/06/25 02:35:27;;;;;;;4.60;4.20;;;14.60;99.90;;;;;;5075368;28;20470;-79
2022/06/25 02:37:54;;;;;;;4.73;4.33;;;14.50;99.90;;;;;;5075722;28;20450;-79
2022/06/25 02:40:20;;;;;;;3.83;3.63;;;14.50;99.90;;;;;;5075177;28;20458;-79
2022/06/25 02:42:47;;;;;;;4.20;3.90;;;14.60;99.90;;;;;;5075955;28;20510;-79
2022/06/25 02:45:14;;;;;;;7.63;4.90;;;14.50;99.90;;;;;;5074667;28;20447;-79
2022/06/25 02:47:42;;;;;;;5.77;5.20;;;14.60;99.90;;;;;;5074728;28;20451;-79
2022/06/25 02:50:11;;;;;;;3.90;3.70;;;14.50;99.90;;;;;;5074894;28;20478;-79
2022/06/25 02:52:38;;;;;;;4.20;3.90;;;14.40;99.90;;;;;;5075593;28;20498;-79
2022/06/25 02:55:05;;;;;;;4.33;4.03;;;14.40;99.90;;;;;;5075008;28;20866;-79
2022/06/25 03:00:16;;;;;;;5.40;4.00;;;14.50;99.90;;;;;;5074523;28;20443;-79
2022/06/25 03:02:44;;;;;;;5.00;4.30;;;14.40;99.90;;;;;;5075429;28;20485;-79
2022/06/25 03:05:11;;;;;;;4.63;4.33;;;14.40;99.90;;;;;;5075507;28;20451;-79
2022/06/25 03:07:38;;;;;;;5.00;4.60;;;14.50;99.90;;;;;;5075918;28;20447;-79
2022/06/25 03:10:05;;;;;;;4.60;4.30;;;14.40;99.90;;;;;;5075151;28;20486;-79
2022/06/25 03:12:32;;;;;;;3.83;3.53;;;14.50;99.90;;;;;;5075172;28;20447;-79
2022/06/25 03:14:59;;;;;;;4.30;4.00;;;14.50;99.90;;;;;;5075273;28;20451;-79
2022/06/25 03:17:25;;;;;;;4.47;4.07;;;14.50;99.90;;;;;;5075293;28;20978;-79
2022/06/25 03:19:53;;;;;;;4.70;4.30;;;14.30;99.90;;;;;;5075612;28;20840;-79
2022/06/25 03:22:20;;;;;;;5.97;5.20;;;14.40;99.90;;;;;;5075677;28;20486;-79
2022/06/25 03:24:47;;;;;;;4.53;4.23;;;14.50;99.90;;;;;;5074972;28;20444;-79
2022/06/25 03:27:14;;;;;;;3.70;3.40;;;14.50;99.90;;;;;;5075460;28;20426;-79
2022/06/25 03:29:41;;;;;;;5.13;4.63;;;14.40;99.90;;;;;;5075323;28;20991;-79
2022/06/25 03:32:08;;;;;;;4.83;4.53;;;14.40;99.90;;;;;;5075338;28;20466;-79
2022/06/25 03:34:35;;;;;;;4.83;3.43;;;14.40;99.90;;;;;;5075053;28;20454;-79
2022/06/25 03:37:03;;;;;;;4.40;4.10;;;14.40;99.90;;;;;;5074955;28;20848;-79
2022/06/25 03:39:30;;;;;;;9.70;5.00;;;14.30;99.90;;;;;;5075799;28;20467;-79
2022/06/25 03:41:57;;;;;;;4.50;4.20;;;14.30;99.90;;;;;;5074142;28;20447;-79
2022/06/25 03:44:23;;;;;;;4.90;4.50;;;14.30;99.90;;;;;;5074873;28;20490;-79
2022/06/25 03:46:50;;;;;;;4.07;3.77;;;14.30;99.90;;;;;;5074662;28;20460;-79
2022/06/25 03:49:17;;;;;;;4.33;4.03;;;14.20;99.90;;;;;;5074423;28;20471;-79
2022/06/25 03:51:43;;;;;;;4.50;4.17;;;14.20;99.90;;;;;;5073851;28;20454;-79
2022/06/25 03:54:11;;;;;;;5.40;4.73;;;14.20;99.90;;;;;;5075017;28;20443;-79
2022/06/25 03:56:38;;;;;;;4.20;3.90;;;14.30;99.90;;;;;;5074744;28;20443;-79
2022/06/25 03:59:05;;;;;;;4.90;4.57;;;14.40;99.90;;;;;;5074577;28;20482;-79
2022/06/25 04:01:32;;;;;;;5.33;4.67;;;14.40;99.90;;;;;;5074506;28;20462;-79
2022/06/25 04:03:59;;;;;;;5.87;4.47;;;14.40;99.90;;;;;;5074477;28;20479;-79
2022/06/25 04:06:26;;;;;;;4.50;4.20;;;14.40;99.90;;;;;;5074288;28;20550;-79
2022/06/25 04:08:53;;;;;;;5.30;5.00;;;14.40;99.90;;;;;;5076653;28;20487;-79
2022/06/25 04:11:21;;;;;;;4.07;3.80;;;14.50;99.90;;;;;;5078343;28;20448;-79
2022/06/25 04:13:47;;;;;;;5.27;4.77;;;14.40;99.90;;;;;;5078736;28;20466;-79
2022/06/25 04:16:14;;;;;;;4.30;4.00;;;14.30;99.90;;;;;;5078021;28;20451;-79
2022/06/25 04:18:41;;;;;;;4.73;4.47;;;14.30;99.90;;;;;;5078364;28;20474;-79
2022/06/25 04:21:08;;;;;;;5.10;4.73;;;14.30;99.90;;;;;;5077393;28;20447;-79
2022/06/25 04:23:34;;;;;;;6.67;5.60;;;14.30;99.90;;;;;;5078200;28;20479;-79
2022/06/25 04:26:01;;;;;;;4.60;4.30;;;14.20;99.90;;;;;;5077972;28;20836;-79
2022/06/25 04:31:14;;;;;;;5.13;4.60;;;14.20;99.90;;;;;;5077277;28;20508;-79
2022/06/25 04:33:41;;;;;;;4.70;4.30;;;14.10;99.90;;;;;;5078235;28;20447;-79
2022/06/25 04:36:08;;;;;;;4.80;4.43;;;14.10;99.90;;;;;;5078166;28;20443;-79
2022/06/25 04:38:35;;;;;;;5.13;4.63;;;14.30;99.90;;;;;;5077902;28;20463;-79
2022/06/25 04:41:01;;;;;;;5.80;5.33;;;14.30;99.90;;;;;;5077520;28;20447;-79
2022/06/25 04:43:29;;;;;;;5.40;4.90;;;14.50;99.90;;;;;;5077753;28;20487;-79
2022/06/25 04:45:56;;;;;;;4.87;4.57;;;14.40;99.90;;;;;;5078029;28;20462;-79
2022/06/25 04:48:23;;;;;;;5.30;4.93;;;14.40;99.90;;;;;;5077878;28;20474;-79
2022/06/25 04:50:49;;;;;;;5.37;4.90;;;14.50;99.90;;;;;;5077423;28;20485;-79
2022/06/25 04:53:17;;;;;;;5.23;4.87;;;14.40;99.90;;;;;;5078216;28;20443;-79
2022/06/25 04:55:44;;;;;;;5.10;4.67;;;14.40;99.90;;;;;;5077943;28;20447;-79
2022/06/25 04:58:11;;;;;;;5.13;4.73;;;14.50;99.90;;;;;;5077558;28;20487;-79
2022/06/25 05:00:39;;;;;;;5.57;5.17;;;14.60;99.90;;;;;;5078057;28;20458;-79
2022/06/25 05:03:06;;;;;;;5.43;5.10;;;14.60;99.90;;;;;;5077642;28;20479;-79
2022/06/25 05:05:33;;;;;;;4.97;4.53;;;14.70;99.90;;;;;;5077564;28;20462;-79
2022/06/25 05:08:00;;;;;;;5.33;4.93;;;14.90;99.90;;;;;;5077077;28;20819;-79
2022/06/25 05:10:27;;;;;;;6.07;4.63;;;14.90;99.90;;;;;;5114956;22;20503;-83
2022/06/25 05:13:12;;;;;;;4.17;3.77;;;15.00;99.90;;;;;;5071784;28;20441;-83
2022/06/25 05:15:41;;;;;;;4.47;4.07;;;15.10;99.90;;;;;;5071099;28;20448;-83
2022/06/25 05:18:08;;;;;;;5.00;4.70;;;15.10;99.90;;;;;;5070501;28;20448;-84
2022/06/25 05:20:38;;;;;;;3.83;3.50;;;15.10;99.90;;;;;;5070108;28;20471;-84
2022/06/25 05:23:05;;;;;;;3.73;3.53;;;15.20;99.90;;;;;;5070904;28;20481;-83
2022/06/25 05:25:31;;;;;;;4.07;3.67;;;15.30;99.90;;;;;;5071402;28;20483;-84
2022/06/25 05:27:58;;;;;;;4.70;4.30;;;15.20;99.90;;;;;;5071800;28;20444;-83
2022/06/25 05:30:25;;;;;;;3.80;3.50;;;15.30;99.90;;;;;;5071018;28;20476;-84
2022/06/25 05:32:53;;;;;;;4.00;3.70;;;15.50;99.90;;;;;;5074387;28;20440;-83
2022/06/25 05:35:20;;;;;;;2.63;2.53;;;15.50;99.90;;;;;;5075609;28;20453;-84
2022/06/25 05:37:47;;;;;;;3.57;3.37;;;15.50;99.90;;;;;;5077286;28;20437;-83
2022/06/25 05:40:14;;;;;;;3.10;2.90;;;15.70;99.90;;;;;;5076937;28;20461;-83
2022/06/25 05:42:41;;;;;;;3.53;3.30;;;15.80;99.90;;;;;;5071406;28;20454;-83
2022/06/25 05:45:09;;;;;;;3.13;2.80;;;15.80;99.90;;;;;;5072031;28;20447;-83
2022/06/25 05:47:35;;;;;;;3.40;3.20;;;15.90;99.90;;;;;;5072110;28;20457;-83
2022/06/25 05:50:05;;;;;;;2.90;2.70;;;15.90;99.90;;;;;;5072592;28;20469;-83
2022/06/25 05:52:31;;;;;;;3.73;3.40;;;16.10;99.90;;;;;;5071880;28;20540;-83
2022/06/25 05:54:58;;;;;;;3.17;2.70;;;16.20;99.90;;;;;;5071966;28;20496;-84
2022/06/25 05:57:25;;;;;;;3.87;3.57;;;16.20;99.90;;;;;;5071571;28;20437;-83
2022/06/25 05:59:52;;;;;;;2.30;2.20;;;16.30;99.90;;;;;;5071413;28;20458;-84
2022/06/25 06:02:18;;;;;;;3.90;2.40;;;16.40;99.90;;;;;;5071113;28;20457;-84
2022/06/25 06:04:45;;;;;;;2.70;2.60;;;16.40;99.90;;;;;;5071166;28;20481;-84
2022/06/25 06:07:14;;;;;;;2.13;2.03;;;16.40;99.90;;;;;;5070973;28;20454;-84
2022/06/25 06:09:40;;;;;;;2.90;2.30;;;16.50;99.90;;;;;;5070616;28;20484;-84
2022/06/25 06:12:08;;;;;;;2.30;2.20;;;16.50;99.90;;;;;;5070659;28;20459;-84
2022/06/25 06:14:35;;;;;;;2.87;2.67;;;16.60;99.90;;;;;;5071806;28;20463;-83
2022/06/25 06:17:01;;;;;;;2.93;2.47;;;16.60;99.90;;;;;;5071201;28;20452;-84
2022/06/25 06:19:28;;;;;;;2.20;2.10;;;16.80;99.90;;;;;;5070934;28;20477;-83
2022/06/25 06:21:55;;;;;;;1.70;1.60;;;16.90;99.90;;;;;;5072559;28;20464;-84
2022/06/25 06:24:23;;;;;;;2.13;2.03;;;16.90;99.90;;;;;;5064183;28;20489;-82
2022/06/25 06:26:50;;;;;;;2.00;1.90;;;16.90;99.90;;;;;;5069455;28;20473;-83
2022/06/25 06:29:17;;;;;;;2.03;1.83;;;17.00;99.90;;;;;;5074134;28;20583;-83
2022/06/25 06:31:45;;;;;;;2.33;2.13;;;17.10;99.90;;;;;;5067031;28;20512;-83
2022/06/25 06:34:11;;;;;;;2.40;2.17;;;17.20;99.90;;;;;;5067244;28;20454;-83
2022/06/25 06:36:38;;;;;;;2.53;2.33;;;17.20;99.90;;;;;;5067027;28;20461;-84
2022/06/25 06:39:05;;;;;;;2.90;2.73;;;17.40;99.90;;;;;;5067422;28;20490;-83
2022/06/25 06:41:33;;;;;;;2.57;2.47;;;17.40;99.90;;;;;;5065751;28;20455;-83
2022/06/25 06:44:00;;;;;;;2.20;2.00;;;17.50;99.90;;;;;;5066167;28;20487;-83
2022/06/25 06:46:31;;;;;;;2.17;2.07;;;17.60;99.90;;;;;;5069632;28;20443;-82
2022/06/25 06:48:59;;;;;;;2.40;2.30;;;17.70;99.90;;;;;;5071784;28;20509;-82
2022/06/25 06:51:26;;;;;;;2.27;2.17;;;17.80;99.90;;;;;;5065666;28;20454;-83
2022/06/25 06:53:53;;;;;;;2.10;2.00;;;17.90;99.90;;;;;;5067890;28;20458;-83
2022/06/25 06:56:20;;;;;;;2.33;2.13;;;18.00;99.90;;;;;;5067473;28;20465;-83
2022/06/25 06:58:48;;;;;;;2.57;2.47;;;18.10;99.90;;;;;;5064227;28;20501;-83
2022/06/25 07:01:15;;;;;;;2.57;2.40;;;18.20;99.90;;;;;;5063995;28;20452;-83
2022/06/25 07:03:42;;;;;;;2.33;2.13;;;18.20;99.90;;;;;;5064486;28;20486;-84
2022/06/25 07:06:09;;;;;;;1.97;1.87;;;18.30;99.90;;;;;;5064746;28;20449;-85
2022/06/25 07:08:36;;;;;;;1.80;1.70;;;18.40;99.90;;;;;;5067295;28;20462;-85
2022/06/25 07:11:27;;;;;;;1.87;1.77;;;18.50;99.90;;;;;;5067928;28;20450;-85
2022/06/25 07:14:07;;;;;;;2.00;1.90;;;18.60;99.90;;;;;;5067037;28;20451;-84
2022/06/25 07:16:34;;;;;;;2.20;2.10;;;18.80;99.90;;;;;;5068672;28;20466;-84
2022/06/25 07:19:02;;;;;;;1.97;1.87;;;18.90;99.90;;;;;;5059945;28;20499;-85
2022/06/25 07:21:30;;;;;;;2.50;2.30;;;18.90;99.90;;;;;;5055515;28;20477;-85
2022/06/25 07:23:57;;;;;;;2.77;2.67;;;19.00;99.90;;;;;;5065279;28;20464;-85
2022/06/25 07:26:24;;;;;;;3.20;3.00;;;19.10;99.90;;;;;;5059014;28;20445;-86
2022/06/25 07:28:53;;;;;;;1.90;1.80;;;19.20;99.90;;;;;;5058235;28;20467;-85
2022/06/25 07:31:22;;;;;;;2.43;2.00;;;19.30;99.90;;;;;;5056799;28;20496;-85
2022/06/25 07:33:48;;;;;;;2.50;2.10;;;19.40;99.90;;;;;;5065797;28;20544;-85
2022/06/25 07:36:15;;;;;;;2.47;2.27;;;19.20;99.90;;;;;;5067942;28;20462;-85
2022/06/25 07:38:42;;;;;;;2.80;2.70;;;19.20;99.90;;;;;;5067515;28;20455;-84
2022/06/25 07:41:08;;;;;;;6.03;3.03;;;19.30;99.90;;;;;;5068497;28;20448;-85
2022/06/25 07:43:35;;;;;;;2.27;1.90;;;19.50;99.90;;;;;;5069286;28;20546;-84
2022/06/25 07:46:03;;;;;;;2.43;2.33;;;19.60;99.90;;;;;;5072767;28;20825;-85
2022/06/25 07:48:31;;;;;;;2.07;1.97;;;19.70;99.90;;;;;;5071359;28;20458;-86
2022/06/25 07:53:42;;;;;;;2.87;2.67;;;19.90;99.90;;;;;;5068599;28;20919;-86
2022/06/25 07:56:09;;;;;;;2.57;2.37;;;20.00;99.90;;;;;;5068062;28;20456;-86
2022/06/25 07:58:36;;;;;;;2.30;2.17;;;20.10;99.90;;;;;;5068321;28;20456;-86
2022/06/25 08:01:03;;;;;;;2.33;2.23;;;20.30;99.90;;;;;;5066956;28;20449;-85
2022/06/25 08:03:32;;;;;;;4.20;2.70;;;20.50;99.90;;;;;;5067383;28;20467;-86
2022/06/25 08:05:59;;;;;;;2.80;2.47;;;20.70;99.90;;;;;;5068990;28;20452;-86
2022/06/25 08:08:26;;;;;;;2.23;2.13;;;20.90;99.90;;;;;;5078332;28;20452;-87
2022/06/25 08:10:53;;;;;;;3.27;3.00;;;21.10;99.90;;;;;;5066097;28;20448;-86
2022/06/25 08:13:19;;;;;;;2.27;2.07;;;21.30;99.90;;;;;;5066893;28;20444;-84
2022/06/25 08:15:46;;;;;;;2.80;1.90;;;21.40;99.90;;;;;;5067685;28;20465;-84
2022/06/25 08:18:13;;;;;;;2.50;2.37;;;21.60;99.90;;;;;;5067041;28;20453;-84
2022/06/25 08:20:41;;;;;;;2.50;2.40;;;21.50;99.90;;;;;;5067589;28;20464;-84
2022/06/25 08:23:08;;;;;;;2.60;2.40;;;21.70;99.90;;;;;;5067302;28;20449;-84
2022/06/25 08:25:35;;;;;;;2.60;2.40;;;21.80;99.90;;;;;;5068425;28;20491;-87
2022/06/25 08:28:01;;;;;;;2.57;2.37;;;21.90;99.90;;;;;;5067605;28;20451;-86
2022/06/25 08:30:28;;;;;;;2.30;2.20;;;21.90;99.90;;;;;;5067074;28;20670;-87
2022/06/25 08:32:56;;;;;;;2.50;2.20;;;21.90;99.90;;;;;;5067195;28;20946;-87
2022/06/25 08:35:23;;;;;;;2.93;2.60;;;22.00;99.90;;;;;;5068737;28;20450;-86
2022/06/25 08:37:51;;;;;;;2.67;2.47;;;22.00;99.90;;;;;;5067747;28;20521;-87
2022/06/25 08:40:19;;;;;;;2.33;2.13;;;22.00;99.90;;;;;;5068073;28;20488;-88
2022/06/25 08:42:48;;;;;;;2.17;2.00;;;22.00;99.90;;;;;;5068142;28;20464;-87
2022/06/25 08:45:15;;;;;;;1.73;1.63;;;22.10;99.90;;;;;;5068152;28;20478;-87
2022/06/25 08:47:44;;;;;;;1.83;1.73;;;22.00;99.90;;;;;;5068554;28;20445;-88
2022/06/25 08:50:14;;;;;;;3.33;2.40;;;22.00;99.90;;;;;;5068550;28;20501;-88
2022/06/25 08:52:44;;;;;;;3.63;2.50;;;22.20;99.90;;;;;;5067999;28;20529;-88
2022/06/25 08:55:20;;;;;;;2.50;2.30;;;22.30;99.90;;;;;;5068127;28;20452;-87
2022/06/25 08:57:47;;;;;;;2.90;2.30;;;22.40;99.90;;;;;;5074017;28;20488;-84
2022/06/25 09:00:15;;;;;;;4.53;3.37;;;22.40;99.90;;;;;;5071460;28;21015;-85
2022/06/25 09:02:42;;;;;;;2.20;2.10;;;22.50;99.90;;;;;;5072115;28;20453;-85
2022/06/25 09:05:09;;;;;;;2.50;2.30;;;22.60;99.90;;;;;;5071700;28;20489;-86
2022/06/25 09:07:36;;;;;;;2.73;2.27;;;22.70;99.90;;;;;;5068580;28;20462;-87
2022/06/25 09:10:03;;;;;;;2.40;2.20;;;22.70;99.90;;;;;;5070163;28;20544;-86
2022/06/25 09:12:34;;;;;;;2.27;2.17;;;22.70;99.90;;;;;;5071251;28;20453;-86
2022/06/25 09:15:00;;;;;;;2.40;2.30;;;22.50;99.90;;;;;;5071179;28;20505;-85
2022/06/25 09:17:27;;;;;;;2.83;2.43;;;22.60;99.90;;;;;;5072613;28;20453;-85
2022/06/25 09:19:57;;;;;;;2.20;2.10;;;22.80;99.90;;;;;;5072246;28;20473;-86
2022/06/25 09:22:25;;;;;;;2.10;2.00;;;22.90;99.90;;;;;;5072050;28;20441;-85
2022/06/25 09:24:53;;;;;;;2.80;2.60;;;23.10;99.90;;;;;;5072841;28;20491;-86
2022/06/25 09:27:21;;;;;;;2.23;2.13;;;23.10;99.90;;;;;;5072578;28;20451;-85
2022/06/25 09:29:51;;;;;;;2.53;2.40;;;23.30;99.90;;;;;;5071435;28;20477;-85
2022/06/25 09:32:19;;;;;;;3.80;3.47;;;23.40;99.90;;;;;;5072497;28;20458;-86
2022/06/25 09:34:46;;;;;;;2.53;2.40;;;23.50;99.90;;;;;;5072292;28;20430;-86
2022/06/25 09:37:22;;;;;;;2.57;2.47;;;23.70;99.90;;;;;;5071703;28;20452;-86
2022/06/25 09:39:50;;;;;;;2.50;2.30;;;23.70;99.90;;;;;;5072220;28;20479;-85
2022/06/25 09:42:22;;;;;;;2.73;2.53;;;23.80;99.90;;;;;;5072783;28;20430;-86
2022/06/25 09:45:04;;;;;;;3.03;2.83;;;23.80;99.90;;;;;;5071639;28;20587;-86
2022/06/25 09:47:34;;;;;;;3.33;2.60;;;24.00;99.90;;;;;;5072842;28;20432;-85
2022/06/25 09:50:12;;;;;;;2.37;2.17;;;24.10;99.90;;;;;;5070605;28;20475;-85
2022/06/25 09:52:49;;;;;;;2.30;2.07;;;24.30;99.90;;;;;;5071110;28;20452;-85
2022/06/25 09:55:17;;;;;;;2.53;2.33;;;24.50;99.80;;;;;;5071099;28;20513;-86
2022/06/25 09:57:45;;;;;;;1.87;1.77;;;24.60;97.90;;;;;;5071478;28;20447;-86
2022/06/25 10:00:15;;;;;;;2.00;1.90;;;24.60;96.80;;;;;;5070299;28;20479;-85
2022/06/25 10:02:43;;;;;;;4.30;2.53;;;24.70;98.10;;;;;;5070369;28;20479;-86
2022/06/25 10:05:12;;;;;;;2.33;2.20;;;24.70;99.30;;;;;;5071456;28;20488;-85
2022/06/25 10:10:24;;;;;;;2.70;2.43;;;24.60;98.10;;;;;;5069936;28;20462;-85
2022/06/25 10:12:51;;;;;;;2.87;2.67;;;24.90;98.60;;;;;;5068039;28;20518;-86
2022/06/25 10:15:21;;;;;;;2.60;2.20;;;25.00;98.40;;;;;;5067738;28;20814;-86
2022/06/25 10:17:49;;;;;;;3.40;2.10;;;25.10;95.80;;;;;;5070307;28;20464;-85
2022/06/25 10:20:18;;;;;;;2.47;2.00;;;25.20;96.40;;;;;;5071125;28;20476;-86
2022/06/25 10:22:47;;;;;;;2.13;2.03;;;25.00;95.40;;;;;;5069792;28;20455;-86
2022/06/25 10:25:16;;;;;;;4.23;2.50;;;24.80;94.30;;;;;;5069583;28;20476;-86
2022/06/25 10:27:45;;;;;;;2.40;2.20;;;24.70;94.80;;;;;;5070046;28;20453;-86
2022/06/25 10:30:13;;;;;;;1.80;1.70;;;24.80;95.50;;;;;;5069425;28;20598;-86
2022/06/25 10:32:47;;;;;;;3.50;2.03;;;25.00;95.40;;;;;;5070282;28;20429;-87
2022/06/25 10:35:29;;;;;;;5.50;2.97;;;25.10;96.00;;;;;;5073125;28;20433;-86
2022/06/25 10:38:01;;;;;;;2.60;2.40;;;25.30;96.40;;;;;;5069312;28;20478;-86
2022/06/25 10:40:28;;;;;;;2.83;2.60;;;25.40;93.50;;;;;;5070891;28;20465;-86
2022/06/25 10:43:01;;;;;;;3.40;2.60;;;25.60;94.40;;;;;;5070297;28;20445;-86
2022/06/25 10:45:52;;;;;;;1.90;1.80;;;25.90;93.80;;;;;;5070318;28;20499;-86
2022/06/25 10:48:23;;;;;;;2.00;1.80;;;26.10;93.70;;;;;;5070576;28;20474;-86
2022/06/25 10:50:51;;;;;;;1.90;1.80;;;26.30;92.10;;;;;;5069488;28;20469;-86
2022/06/25 10:53:19;;;;;;;2.00;1.90;;;26.40;92.20;;;;;;5070120;28;20446;-85
2022/06/25 10:56:01;;;;;;;2.40;2.13;;;26.50;91.90;;;;;;5069813;28;20445;-86
2022/06/25 10:58:41;;;;;;;2.00;1.90;;;26.20;91.30;;;;;;5069541;28;20434;-86
2022/06/25 11:01:23;;;;;;;1.73;1.63;;;26.40;93.00;;;;;;5068508;28;20439;-85
2022/06/25 11:03:55;;;;;;;2.40;2.23;;;26.60;90.80;;;;;;5063429;28;20439;-86
2022/06/25 11:06:24;;;;;;;2.03;1.63;;;27.00;92.20;;;;;;5061333;28;20475;-85
2022/06/25 11:08:53;;;;;;;3.53;2.10;;;27.30;91.80;;;;;;5066069;28;20474;-85
2022/06/25 11:11:32;;;;;;;1.90;1.80;;;27.70;91.00;;;;;;5067125;28;20462;-87
2022/06/25 11:14:01;;;;;;;2.43;2.10;;;28.10;91.30;;;;;;5066982;28;20451;-86
2022/06/25 11:16:28;;;;;;;2.00;1.90;;;28.20;87.80;;;;;;5065684;28;20443;-85
2022/06/25 11:18:57;;;;;;;2.07;1.97;;;28.60;90.40;;;;;;5067295;28;20466;-85
2022/06/25 11:21:32;;;;;;;2.10;1.83;;;29.20;84.50;;;;;;5067738;28;20457;-86
2022/06/25 11:24:14;;;;;;;3.47;1.90;;;29.50;78.70;;;;;;5070020;28;20439;-84
2022/06/25 11:29:28;;;;;;;3.20;1.90;;;30.10;80.50;;;;;;5068375;28;20452;-85
2022/06/25 11:31:56;;;;;;;1.67;1.57;;;30.20;74.70;;;;;;5066868;28;20459;-85
2022/06/25 11:34:26;;;;;;;2.13;1.93;;;30.10;74.60;;;;;;5064809;28;20466;-84
2022/06/25 11:36:57;;;;;;;2.17;2.07;;;30.60;77.70;;;;;;5062466;28;20452;-85
2022/06/25 11:39:24;;;;;;;2.03;1.93;;;31.00;73.10;;;;;;5061467;28;20481;-85
2022/06/25 11:41:51;;;;;;;4.37;2.03;;;31.50;70.10;;;;;;5062309;28;20475;-84
2022/06/25 11:44:19;;;;;;;1.63;1.53;;;31.90;67.40;;;;;;5065078;28;20461;-84
2022/06/25 11:46:47;;;;;;;2.50;1.90;;;32.00;65.90;;;;;;5063265;28;20491;-85
2022/06/25 11:49:14;;;;;;;1.77;1.67;;;32.30;70.30;;;;;;5057430;28;20481;-85
2022/06/25 11:51:46;;;;;;;1.77;1.50;;;32.20;62.10;;;;;;5057276;28;20464;-85
2022/06/25 11:54:13;;;;;;;4.10;3.90;;;32.10;64.90;;;;;;5057557;28;20462;-85
2022/06/25 11:56:47;;;;;;;1.97;1.87;;;32.50;62.50;;;;;;5047991;28;20458;-85
2022/06/25 11:59:15;;;;;;;2.00;1.90;;;32.30;60.60;;;;;;5040928;28;20855;-85
2022/06/25 12:01:48;;;;;;;2.53;1.83;;;32.60;62.60;;;;;;5058308;28;20461;-85
2022/06/25 12:04:15;;;;;;;2.53;2.30;;;33.00;61.40;;;;;;5056356;28;20464;-85
2022/06/25 12:06:42;;;;;;;2.30;2.10;;;33.30;54.90;;;;;;5055391;28;20973;-84
2022/06/25 12:09:10;;;;;;;1.67;1.53;;;33.10;57.50;;;;;;5056790;28;20474;-85
2022/06/25 12:11:37;;;;;;;1.80;1.70;;;;;;;;;;5059917;28;20451;-85
2022/06/25 12:14:05;;;;;;;1.97;1.87;;;33.70;57.20;;;;;;5064806;28;20219;-85
2022/06/25 12:16:43;;;;;;;1.60;1.47;;;34.10;55.20;;;;;;5059622;28;20479;-85
2022/06/25 12:19:09;;;;;;;1.80;1.70;;;34.10;53.90;;;;;;5055138;28;20468;-84
2022/06/25 12:21:37;;;;;;;1.40;1.30;;;34.20;54.60;;;;;;5055274;28;20451;-87
2022/06/25 12:24:06;;;;;;;1.53;1.43;;;34.20;52.60;;;;;;5056108;28;20456;-85
2022/06/25 12:26:35;;;;;;;1.37;1.27;;;34.30;53.40;;;;;;5054863;28;20485;-86
2022/06/25 12:29:06;;;;;;;1.53;1.40;;;34.30;51.70;;;;;;5055864;28;20468;-85
2022/06/25 12:31:33;;;;;;;2.13;2.03;;;34.40;51.70;;;;;;5060178;28;20455;-86
2022/06/25 12:34:01;;;;;;;1.77;1.67;;;34.40;52.60;;;;;;5059517;28;20452;-85
2022/06/25 12:36:28;;;;;;;2.60;1.70;;;34.50;52.70;;;;;;5059875;28;20448;-85
2022/06/25 12:38:55;;;;;;;1.43;1.33;;;34.70;53.60;;;;;;5058651;28;20832;-86
2022/06/25 12:41:22;;;;;;;1.27;1.17;;;34.90;52.30;;;;;;5058125;28;20452;-85
2022/06/25 12:43:50;;;;;;;1.17;1.13;;;34.90;50.20;;;;;;5059846;28;20456;-85
2022/06/25 12:46:20;;;;;;;1.80;1.70;;;35.00;47.80;;;;;;5064992;28;20776;-85
2022/06/25 12:48:47;;;;;;;2.07;1.97;;;35.00;50.40;;;;;;5064640;28;20463;-85
2022/06/25 12:51:15;;;;;;;1.87;1.77;;;35.10;50.60;;;;;;5059783;28;20462;-85
2022/06/25 12:53:43;;;;;;;2.27;2.10;;;35.10;50.20;;;;;;5059505;28;20455;-85
2022/06/25 12:56:11;;;;;;;1.70;1.60;;;35.30;49.50;;;;;;5061771;28;20444;-85
2022/06/25 12:58:40;;;;;;;1.80;1.70;;;35.40;49.70;;;;;;5061210;28;20460;-85
2022/06/25 13:01:22;;;;;;;1.90;1.80;;;35.60;49.20;;;;;;5061233;28;20448;-84
2022/06/25 13:03:49;;;;;;;2.10;1.83;;;35.80;50.30;;;;;;5071285;28;20452;-85
2022/06/25 13:06:16;;;;;;;1.90;1.80;;;36.30;49.40;;;;;;5061216;28;20483;-85
2022/06/25 13:08:43;;;;;;;1.83;1.73;;;36.70;48.20;;;;;;5060264;28;20482;-85
2022/06/25 13:11:17;;;;;;;2.60;2.40;;;37.10;48.20;;;;;;5058374;28;20475;-85
2022/06/25 13:13:44;;;;;;;2.10;1.93;;;37.40;46.30;;;;;;5048651;28;20858;-86
2022/06/25 13:16:11;;;;;;;1.87;1.77;;;37.30;47.00;;;;;;5045845;28;20957;-85